Time;durP1;ratioP1;P1;durP2;ratioP2;P2;SDS_P1;SDS_P2;PMS_P1;PMS_P2;Temp;Humidity;BMP_temperature;BMP_pressure;BME280_temperature;BME280_humidity;BME280_pressure;Samples;Min_cycle;Max_cycle;Signal;HPM_P1;HPM_P2
2023/06/12 00:01:25;;;;;;;9.60;5.73;;;;;;;21.71;42.63;101308.38;4992778;28;20030;-86
2023/06/12 00:03:53;;;;;;;12.83;6.13;;;;;;;21.69;43.35;101308.66;4976377;28;20050;-86
2023/06/12 00:06:21;;;;;;;9.30;6.00;;;;;;;21.65;43.04;101307.56;4992779;28;20042;-85
2023/06/12 00:08:46;;;;;;;11.57;5.88;;;;;;;21.61;43.85;101311.97;4992765;28;20424;-85
2023/06/12 00:11:16;;;;;;;10.53;6.00;;;;;;;21.54;44.29;101306.75;4992383;28;20069;-86
2023/06/12 00:13:43;;;;;;;7.57;5.88;;;;;;;21.52;43.44;101311.69;4994267;28;20054;-85
2023/06/12 00:16:11;;;;;;;8.27;5.55;;;;;;;21.48;43.02;101307.00;4994779;28;20586;-86
2023/06/12 00:18:40;;;;;;;6.90;5.50;;;;;;;21.45;43.78;101311.16;4996516;28;20081;-86
2023/06/12 00:21:10;;;;;;;8.90;5.90;;;;;;;21.36;44.17;101308.13;4996429;28;20030;-85
2023/06/12 00:23:40;;;;;;;7.35;5.82;;;;;;;21.32;44.83;101307.00;4996926;28;20038;-86
2023/06/12 00:26:05;;;;;;;7.57;5.80;;;;;;;21.25;44.74;101308.41;4996700;28;20026;-86
2023/06/12 00:28:31;;;;;;;9.63;6.00;;;;;;;21.20;45.01;101310.06;4996372;28;20037;-86
2023/06/12 00:30:57;;;;;;;11.20;5.95;;;;;;;21.15;45.67;101312.78;4996897;28;20030;-85
2023/06/12 00:33:28;;;;;;;8.77;5.90;;;;;;;21.12;46.76;101307.00;4995915;28;20496;-85
2023/06/12 00:35:53;;;;;;;9.80;5.80;;;;;;;21.06;47.98;101310.88;4995968;28;20037;-86
2023/06/12 00:38:21;;;;;;;8.80;6.15;;;;;;;21.00;47.53;101310.03;4996098;28;20042;-86
2023/06/12 00:40:50;;;;;;;7.93;5.65;;;;;;;20.99;48.67;101306.47;4995972;28;20477;-85
2023/06/12 00:43:18;;;;;;;8.10;5.90;;;;;;;20.89;49.17;101311.13;4997339;28;20054;-86
2023/06/12 00:45:47;;;;;;;10.55;6.00;;;;;;;20.85;49.72;101299.81;4995995;28;20066;-86
2023/06/12 00:48:13;;;;;;;10.18;5.93;;;;;;;20.78;49.93;101299.25;4996095;28;20031;-85
2023/06/12 00:50:41;;;;;;;7.57;5.85;;;;;;;20.74;49.01;101304.47;4996909;28;20105;-85
2023/06/12 00:53:10;;;;;;;9.57;5.80;;;;;;;20.70;49.92;101302.53;4996746;28;20038;-85
2023/06/12 00:55:36;;;;;;;10.73;6.13;;;;;;;20.65;48.60;101300.56;4995833;28;20022;-85
2023/06/12 00:58:02;;;;;;;8.30;5.53;;;;;;;20.62;48.57;101301.94;4996044;28;20125;-85
2023/06/12 01:00:30;;;;;;;7.57;5.47;;;;;;;20.63;48.25;101311.06;4995912;28;20053;-85
2023/06/12 01:03:04;;;;;;;7.65;5.78;;;;;;;20.58;49.06;101308.28;4995499;28;20097;-85
2023/06/12 01:05:35;;;;;;;8.57;5.70;;;;;;;20.54;51.51;101313.50;4995912;28;20037;-85
2023/06/12 01:08:15;;;;;;;8.43;6.05;;;;;;;20.48;50.85;101312.66;4996956;28;20027;-85
2023/06/12 01:10:45;;;;;;;6.57;5.90;;;;;;;20.41;51.63;101312.09;4995635;28;20082;-86
2023/06/12 01:13:13;;;;;;;8.93;5.93;;;;;;;20.36;50.79;101314.84;4996263;28;20061;-85
2023/06/12 01:15:39;;;;;;;8.38;6.07;;;;;;;20.33;49.65;101313.44;4979007;28;20081;-86
2023/06/12 01:18:06;;;;;;;7.68;5.75;;;;;;;20.27;49.70;101309.00;4978915;28;20066;-85
2023/06/12 01:20:35;;;;;;;8.50;6.35;;;;;;;20.24;49.37;101316.97;4979643;28;20038;-86
2023/06/12 01:23:11;;;;;;;9.37;6.10;;;;;;;20.20;49.18;101315.88;4979141;28;20509;-85
2023/06/12 01:25:48;;;;;;;10.60;6.50;;;;;;;20.19;53.53;101316.97;4996310;28;20105;-85
2023/06/12 01:28:45;;;;;;;7.88;5.82;;;;;;;20.14;51.52;101315.84;4995842;28;20026;-86
2023/06/12 01:31:35;;;;;;;10.07;6.13;;;;;;;20.06;52.34;101310.81;4994877;28;20502;-85
2023/06/12 01:34:12;;;;;;;10.10;6.03;;;;;;;19.98;53.06;101308.59;4996470;28;20030;-85
2023/06/12 01:36:41;;;;;;;8.50;6.43;;;;;;;19.86;52.61;101319.00;4996717;28;20058;-86
2023/06/12 01:39:08;;;;;;;11.77;5.82;;;;;;;19.85;53.91;101314.59;4996022;28;20031;-85
2023/06/12 01:41:34;;;;;;;8.57;6.00;;;;;;;19.79;53.10;101317.28;4994560;28;20355;-86
2023/06/12 01:44:16;;;;;;;9.48;6.25;;;;;;;19.74;52.18;101328.25;4995907;28;20494;-85
2023/06/12 01:46:44;;;;;;;9.45;6.10;;;;;;;19.71;53.89;101319.69;4995232;28;20410;-85
2023/06/12 01:49:10;;;;;;;9.67;6.47;;;;;;;19.66;53.75;101325.19;4994840;28;20038;-86
2023/06/12 01:51:36;;;;;;;7.35;5.65;;;;;;;19.61;53.97;101320.47;4996326;28;20121;-86
2023/06/12 01:54:01;;;;;;;11.55;6.07;;;;;;;19.54;54.13;101317.13;4994497;28;20442;-86
2023/06/12 01:56:30;;;;;;;9.20;6.47;;;;;;;19.41;55.16;101321.13;4978313;28;20030;-85
2023/06/12 01:58:55;;;;;;;9.13;6.30;;;;;;;19.41;55.36;101319.22;4979174;28;20293;-86
2023/06/12 02:01:23;;;;;;;10.75;6.53;;;;;;;19.38;54.36;101322.47;4978330;28;20030;-86
2023/06/12 02:03:49;;;;;;;9.40;6.50;;;;;;;19.36;54.42;101319.19;4994316;28;20379;-86
2023/06/12 02:06:16;;;;;;;11.23;6.55;;;;;;;19.31;53.81;101321.91;4994868;28;20034;-86
2023/06/12 02:08:42;;;;;;;9.10;6.80;;;;;;;19.29;54.02;101324.06;4994732;28;20045;-85
2023/06/12 02:11:09;;;;;;;8.97;6.33;;;;;;;19.19;53.11;101324.81;4995581;28;20101;-86
2023/06/12 02:13:37;;;;;;;9.05;6.30;;;;;;;19.20;53.69;101322.91;4995092;28;20029;-85
2023/06/12 02:16:07;;;;;;;7.95;6.25;;;;;;;19.22;54.06;101310.56;4994246;28;20080;-86
2023/06/12 02:18:33;;;;;;;10.20;6.40;;;;;;;19.16;52.96;101322.56;4994259;28;20030;-86
2023/06/12 02:20:59;;;;;;;7.28;5.70;;;;;;;19.17;53.19;101318.75;4978118;28;20038;-85
2023/06/12 02:23:25;;;;;;;9.50;6.07;;;;;;;19.14;53.06;101315.69;4995501;28;20070;-85
2023/06/12 02:25:50;;;;;;;10.88;6.35;;;;;;;19.07;53.31;101313.16;4994700;28;20066;-85
2023/06/12 02:28:16;;;;;;;9.90;6.70;;;;;;;19.07;52.99;101324.16;4994109;28;20033;-85
2023/06/12 02:30:41;;;;;;;10.37;6.50;;;;;;;19.05;53.27;101312.59;4994368;28;20034;-85
2023/06/12 02:33:09;;;;;;;10.80;6.65;;;;;;;18.99;53.67;101314.47;4994240;28;20117;-85
2023/06/12 02:35:38;;;;;;;11.37;6.40;;;;;;;18.95;53.61;101313.31;4994548;28;20038;-85
2023/06/12 02:38:04;;;;;;;14.60;7.10;;;;;;;18.91;53.41;101314.91;4993633;28;20068;-85
2023/06/12 02:40:30;;;;;;;8.60;6.43;;;;;;;18.86;54.17;101312.97;4992860;28;20455;-86
2023/06/12 02:42:58;;;;;;;10.33;6.40;;;;;;;18.83;54.03;101310.69;4977612;28;20034;-86
2023/06/12 02:45:23;;;;;;;9.95;6.50;;;;;;;18.83;54.55;101313.44;4993730;28;20026;-86
2023/06/12 02:47:49;;;;;;;8.27;6.25;;;;;;;18.77;53.83;101315.31;4993737;28;20022;-86
2023/06/12 02:50:20;;;;;;;10.03;6.10;;;;;;;18.72;54.43;101318.03;4993700;28;20026;-86
2023/06/12 02:52:48;;;;;;;9.80;6.45;;;;;;;18.68;54.75;101314.13;4994496;28;20115;-85
2023/06/12 02:55:18;;;;;;;12.07;6.78;;;;;;;18.63;55.17;101307.72;4994921;28;20065;-85
2023/06/12 02:57:46;;;;;;;11.20;6.93;;;;;;;18.53;55.78;101314.78;4978330;28;20425;-85
2023/06/12 03:00:15;;;;;;;9.05;6.68;;;;;;;18.48;57.43;101311.16;4994126;28;20022;-85
2023/06/12 03:02:47;;;;;;;8.65;6.75;;;;;;;18.40;57.47;101307.75;4978009;28;20030;-85
2023/06/12 03:05:15;;;;;;;8.13;6.47;;;;;;;18.35;56.98;101309.63;4978237;28;20044;-85
2023/06/12 03:07:44;;;;;;;9.15;6.63;;;;;;;18.30;56.46;101302.16;4993504;28;20106;-85
2023/06/12 03:10:12;;;;;;;10.67;6.67;;;;;;;18.28;55.82;101309.81;4994482;28;20034;-85
2023/06/12 03:12:39;;;;;;;10.50;6.40;;;;;;;18.22;57.06;101306.19;4977087;28;20531;-85
2023/06/12 03:15:05;;;;;;;9.35;6.90;;;;;;;18.17;56.24;101313.53;4993620;28;20033;-85
2023/06/12 03:17:33;;;;;;;10.02;6.47;;;;;;;18.22;56.46;101306.19;4992980;28;20042;-85
2023/06/12 03:19:59;;;;;;;10.63;6.47;;;;;;;18.20;56.73;101315.75;4993958;28;20034;-85
2023/06/12 03:22:27;;;;;;;11.57;6.23;;;;;;;18.19;56.95;101314.13;4994754;28;20525;-85
2023/06/12 03:24:53;;;;;;;8.75;6.82;;;;;;;18.17;56.36;101314.38;4977197;28;20038;-85
2023/06/12 03:27:19;;;;;;;12.98;6.40;;;;;;;18.14;56.30;101317.59;4976750;28;20183;-85
2023/06/12 03:29:48;;;;;;;8.55;6.70;;;;;;;18.17;56.88;101319.00;4993171;28;20061;-85
2023/06/12 03:32:15;;;;;;;10.37;6.20;;;;;;;18.19;57.21;101323.16;4994923;28;20479;-85
2023/06/12 03:34:43;;;;;;;10.15;6.18;;;;;;;18.16;57.91;101311.84;4976684;28;20030;-85
2023/06/12 03:37:08;;;;;;;9.38;6.22;;;;;;;18.12;56.73;101325.28;4994081;28;20034;-85
2023/06/12 03:39:36;;;;;;;10.40;6.90;;;;;;;18.12;56.32;101327.19;4992942;28;20042;-85
2023/06/12 03:42:02;;;;;;;10.93;7.10;;;;;;;18.11;57.33;101331.03;4992844;28;20030;-85
2023/06/12 03:44:27;;;;;;;8.35;6.60;;;;;;;18.10;56.92;101332.09;4994504;28;20045;-85
2023/06/12 03:46:55;;;;;;;9.40;7.07;;;;;;;18.06;56.58;101329.03;4992662;28;20043;-85
2023/06/12 03:49:21;;;;;;;7.85;6.38;;;;;;;18.07;57.29;101327.97;4993936;28;20042;-85
2023/06/12 03:51:46;;;;;;;13.67;6.83;;;;;;;18.06;57.44;101334.53;4996207;28;20034;-84
2023/06/12 03:54:12;;;;;;;8.93;6.50;;;;;;;18.08;56.74;101329.59;4996995;28;20088;-85
2023/06/12 03:56:38;;;;;;;9.43;6.60;;;;;;;18.14;56.88;101327.75;4998005;28;20479;-85
2023/06/12 03:59:06;;;;;;;9.97;6.43;;;;;;;18.12;56.33;101324.44;4997891;28;20039;-84
2023/06/12 04:01:32;;;;;;;10.38;7.13;;;;;;;18.10;56.60;101332.09;4998284;28;20031;-85
2023/06/12 04:03:57;;;;;;;11.97;6.87;;;;;;;18.11;57.56;101331.84;4996442;28;20029;-85
2023/06/12 04:06:24;;;;;;;11.00;7.00;;;;;;;18.15;57.18;101337.66;4980630;28;20136;-85
2023/06/12 04:08:59;;;;;;;10.60;7.00;;;;;;;18.18;56.34;101348.16;4980708;28;20089;-85
2023/06/12 04:11:30;;;;;;;12.30;6.88;;;;;;;18.22;56.96;101344.63;4980776;28;20054;-86
2023/06/12 04:13:57;;;;;;;13.32;7.53;;;;;;;18.26;57.69;101344.13;4997971;28;20129;-85
2023/06/12 04:16:25;;;;;;;11.65;7.28;;;;;;;18.23;57.47;101346.31;4998335;28;20046;-85
2023/06/12 04:18:51;;;;;;;13.18;7.88;;;;;;;18.23;57.08;101349.03;4980669;28;20045;-85
2023/06/12 04:21:19;;;;;;;12.33;7.97;;;;;;;18.26;57.25;101353.19;4996111;28;20031;-86
2023/06/12 04:23:47;;;;;;;10.73;7.38;;;;;;;18.31;58.22;101355.19;4997455;28;20022;-85
2023/06/12 04:26:14;;;;;;;12.35;8.15;;;;;;;18.31;57.87;101358.75;4997629;28;20113;-85
2023/06/12 04:28:42;;;;;;;15.30;8.33;;;;;;;18.35;58.26;101356.31;4996065;28;20038;-85
2023/06/12 04:31:08;;;;;;;14.45;8.30;;;;;;;18.33;57.73;101353.81;4997547;28;20033;-85
2023/06/12 04:33:35;;;;;;;14.05;7.82;;;;;;;18.34;57.41;101350.00;4997755;28;20022;-85
2023/06/12 04:36:02;;;;;;;12.18;8.43;;;;;;;18.37;57.75;101357.72;4996468;28;20046;-85
2023/06/12 04:38:31;;;;;;;10.70;7.60;;;;;;;18.39;57.97;101352.81;4996112;28;20030;-85
2023/06/12 04:41:00;;;;;;;12.50;8.55;;;;;;;18.43;57.50;101349.56;4996929;28;20026;-84
2023/06/12 04:43:29;;;;;;;12.23;8.15;;;;;;;18.43;57.99;101355.06;4995644;28;20030;-85
2023/06/12 04:45:57;;;;;;;13.15;8.20;;;;;;;18.48;58.03;101344.13;4996770;28;20089;-85
2023/06/12 04:48:23;;;;;;;11.63;8.43;;;;;;;18.50;57.66;101344.69;4996673;28;20471;-85
2023/06/12 04:50:51;;;;;;;15.07;8.23;;;;;;;18.53;58.69;101357.94;4995874;28;20514;-85
2023/06/12 04:53:17;;;;;;;14.65;8.80;;;;;;;18.54;57.44;101349.44;4995885;28;20030;-85
2023/06/12 04:55:50;;;;;;;11.35;8.40;;;;;;;18.59;57.38;101360.47;4995865;28;20034;-85
2023/06/12 04:58:19;;;;;;;10.32;7.82;;;;;;;18.60;57.05;101364.03;4996306;28;20030;-85
2023/06/12 05:00:47;;;;;;;13.10;8.52;;;;;;;18.63;57.82;101363.53;4995367;28;20029;-85
2023/06/12 05:03:17;;;;;;;14.83;8.67;;;;;;;18.66;57.49;101365.78;4979199;28;20133;-85
2023/06/12 05:05:46;;;;;;;12.00;9.00;;;;;;;18.72;57.50;101358.41;4963868;28;20049;-85
2023/06/12 05:08:12;;;;;;;12.60;8.98;;;;;;;18.72;57.36;101362.00;4995635;28;20035;-85
2023/06/12 05:10:37;;;;;;;15.32;8.70;;;;;;;18.75;57.62;101366.97;4995342;28;20041;-85
2023/06/12 05:13:05;;;;;;;14.87;8.87;;;;;;;18.80;58.34;101368.94;4995768;28;20030;-85
2023/06/12 05:15:30;;;;;;;13.57;9.60;;;;;;;18.82;57.56;101368.69;4996262;28;20459;-85
2023/06/12 05:17:58;;;;;;;17.33;9.77;;;;;;;18.85;57.28;101360.78;4978940;28;20039;-85
2023/06/12 05:20:24;;;;;;;19.38;9.55;;;;;;;18.88;57.31;101363.03;4979250;28;20041;-89
2023/06/12 05:22:50;;;;;;;14.90;9.25;;;;;;;18.95;57.93;101367.50;4995204;28;20034;-88
2023/06/12 05:25:16;;;;;;;13.33;8.83;;;;;;;18.97;57.98;101368.03;4996771;28;20030;-89
2023/06/12 05:27:41;;;;;;;15.55;9.45;;;;;;;19.03;57.61;101365.09;4979089;28;20121;-89
2023/06/12 05:30:08;;;;;;;18.03;10.07;;;;;;;19.07;57.28;101371.75;4995396;28;20463;-90
2023/06/12 05:32:34;;;;;;;12.48;9.48;;;;;;;19.14;58.02;101365.19;4995317;28;20034;-87
2023/06/12 05:35:02;;;;;;;16.60;10.65;;;;;;;19.17;57.26;101367.44;4995266;28;20089;-87
2023/06/12 05:37:28;;;;;;;16.40;9.83;;;;;;;19.20;57.42;101369.66;4994899;28;20097;-89
2023/06/12 05:39:53;;;;;;;12.82;9.77;;;;;;;19.23;57.24;101363.63;4979171;28;20034;-89
2023/06/12 05:42:19;;;;;;;15.37;9.17;;;;;;;19.28;57.48;101367.25;4995720;28;20038;-88
2023/06/12 05:44:46;;;;;;;13.75;9.70;;;;;;;19.34;57.59;101367.28;4995006;28;20038;-90
2023/06/12 05:47:12;;;;;;;18.37;9.97;;;;;;;19.37;56.82;101353.84;4995095;28;20035;-88
2023/06/12 05:49:38;;;;;;;12.25;9.88;;;;;;;19.43;57.28;101355.56;4995752;28;20045;-86
2023/06/12 05:52:07;;;;;;;12.90;9.40;;;;;;;19.49;57.74;101359.19;4994775;28;20035;-84
2023/06/12 05:54:33;;;;;;;15.40;9.00;;;;;;;19.58;57.20;101354.84;4994435;28;20493;-82
2023/06/12 05:57:00;;;;;;;13.40;9.18;;;;;;;19.64;56.97;101361.22;4995031;28;20030;-82
2023/06/12 05:59:25;;;;;;;14.75;9.27;;;;;;;19.74;56.52;101352.22;4979167;28;20057;-82
2023/06/12 06:01:51;;;;;;;14.57;8.50;;;;;;;19.82;55.61;101354.50;4995625;28;20459;-82
2023/06/12 06:04:16;;;;;;;13.70;8.70;;;;;;;19.91;55.15;101357.56;4994229;28;20030;-83
2023/06/12 06:06:42;;;;;;;14.30;9.13;;;;;;;19.96;55.83;101352.09;4996012;28;20514;-83
2023/06/12 06:09:07;;;;;;;13.67;9.20;;;;;;;20.10;55.32;101357.97;4994704;28;20035;-83
2023/06/12 06:11:33;;;;;;;13.30;8.60;;;;;;;20.19;54.48;101356.34;4978928;28;20450;-85
2023/06/12 06:13:58;;;;;;;14.52;7.93;;;;;;;20.24;54.30;101355.53;4994316;28;20072;-83
2023/06/12 06:16:25;;;;;;;18.93;8.40;;;;;;;20.30;54.73;101358.06;4978200;28;20035;-83
2023/06/12 06:18:50;;;;;;;12.70;8.25;;;;;;;20.40;53.07;101353.69;4993907;28;20030;-83
2023/06/12 06:21:16;;;;;;;12.30;8.17;;;;;;;20.48;52.38;101359.50;4993718;28;20089;-82
2023/06/12 06:23:41;;;;;;;12.23;7.90;;;;;;;20.58;52.22;101368.91;4994154;28;20030;-83
2023/06/12 06:26:09;;;;;;;17.40;7.67;;;;;;;20.68;51.84;101357.94;4977392;28;20035;-82
2023/06/12 06:28:34;;;;;;;13.80;7.35;;;;;;;20.72;53.05;101363.78;4977582;28;20030;-83
2023/06/12 06:31:00;;;;;;;14.57;9.10;;;;;;;;;;4993841;28;20054;-83
2023/06/12 06:33:25;;;;;;;12.03;7.40;;;;;;;20.87;51.26;101365.75;4977389;28;20482;-82
2023/06/12 06:35:51;;;;;;;12.20;7.38;;;;;;;20.91;51.00;101370.44;4977888;28;20121;-83
2023/06/12 06:38:21;;;;;;;10.90;6.93;;;;;;;20.97;51.70;101365.75;4978406;28;20026;-83
2023/06/12 06:40:46;;;;;;;14.07;7.20;;;;;;;21.00;51.50;101366.03;4978353;28;20034;-82
2023/06/12 06:43:12;;;;;;;12.00;6.40;;;;;;;21.06;51.67;101366.06;4994449;28;20528;-83
2023/06/12 06:45:38;;;;;;;13.40;6.83;;;;;;;21.08;52.48;101366.59;4994477;28;20038;-83
2023/06/12 06:48:04;;;;;;;11.73;6.63;;;;;;;21.18;50.93;101366.59;4993415;28;20416;-82
2023/06/12 06:50:32;;;;;;;12.93;6.80;;;;;;;21.25;51.77;101371.88;4977256;28;20041;-87
2023/06/12 06:53:05;;;;;;;8.25;6.47;;;;;;;21.28;50.79;101372.13;4993456;28;20062;-89
2023/06/12 06:55:30;;;;;;;9.10;6.03;;;;;;;21.34;50.43;101364.69;4977190;28;20124;-88
2023/06/12 06:57:58;;;;;;;12.55;6.47;;;;;;;21.40;50.31;101366.34;4993625;28;20124;-88
2023/06/12 07:00:25;;;;;;;10.40;5.97;;;;;;;21.47;50.60;101369.66;4993073;28;20030;-88
2023/06/12 07:02:51;;;;;;;10.80;6.28;;;;;;;21.53;50.17;101370.53;4993448;28;20026;-89
2023/06/12 07:05:20;;;;;;;11.90;5.93;;;;;;;21.55;50.67;101366.38;4994394;28;20049;-88
2023/06/12 07:07:49;;;;;;;11.03;5.83;;;;;;;21.62;50.17;101357.81;4993333;28;20030;-88
2023/06/12 07:10:15;;;;;;;11.57;6.20;;;;;;;21.68;49.63;101359.44;4977642;28;20041;-88
2023/06/12 07:12:41;;;;;;;9.75;6.57;;;;;;;21.76;49.30;101360.00;4993219;28;20042;-88
2023/06/12 07:15:07;;;;;;;13.20;6.23;;;;;;;21.79;49.53;101357.53;4993227;28;20053;-89
2023/06/12 07:17:32;;;;;;;15.27;6.57;;;;;;;21.85;49.20;101363.84;4994753;28;20061;-89
2023/06/12 07:20:01;;;;;;;8.97;6.23;;;;;;;21.93;49.00;101356.94;4994324;28;20070;-89
2023/06/12 07:22:32;;;;;;;17.27;6.05;;;;;;;21.99;48.23;101356.63;4992992;28;20038;-89
2023/06/12 07:24:57;;;;;;;12.43;6.45;;;;;;;22.06;48.30;101348.06;4994709;28;20551;-89
2023/06/12 07:27:22;;;;;;;15.40;6.27;;;;;;;22.17;48.07;101346.09;4992728;28;20042;-89
2023/06/12 07:29:48;;;;;;;14.40;6.40;;;;;;;22.24;47.37;101349.38;4994699;28;20486;-89
2023/06/12 07:32:13;;;;;;;13.83;6.67;;;;;;;22.36;47.01;101346.31;4993756;28;20034;-89
2023/06/12 07:34:39;;;;;;;15.15;6.40;;;;;;;22.43;47.58;101344.09;4993997;28;20088;-89
2023/06/12 07:37:05;;;;;;;12.00;6.57;;;;;;;22.50;46.77;101343.75;4961014;28;20467;-89
2023/06/12 07:39:33;;;;;;;17.90;6.50;;;;;;;22.58;47.45;101346.75;4992903;28;20030;-88
2023/06/12 07:41:58;;;;;;;8.77;5.55;;;;;;;22.66;46.78;101347.28;4976372;28;20129;-89
2023/06/12 07:44:30;;;;;;;9.23;5.60;;;;;;;22.72;46.63;101341.44;4993984;28;20067;-89
2023/06/12 07:46:56;;;;;;;9.48;6.13;;;;;;;22.83;45.86;101344.16;4977198;28;20172;-88
2023/06/12 07:49:21;;;;;;;11.93;6.20;;;;;;;22.92;46.31;101350.72;4994179;28;20062;-89
2023/06/12 07:51:47;;;;;;;15.48;6.47;;;;;;;22.99;46.05;101350.41;4992976;28;20038;-89
2023/06/12 07:54:12;;;;;;;11.80;6.10;;;;;;;23.07;46.45;101342.31;4992964;28;20176;-89
2023/06/12 07:56:41;;;;;;;14.27;6.17;;;;;;;23.16;44.76;101345.31;4976892;28;20039;-89
2023/06/12 07:59:16;;;;;;;9.02;6.10;;;;;;;23.25;45.88;101340.84;4992738;28;20110;-89
2023/06/12 08:01:41;;;;;;;13.32;6.20;;;;;;;23.35;45.34;101345.44;4993546;28;20451;-89
2023/06/12 08:04:11;;;;;;;14.00;5.90;;;;;;;23.45;45.25;101339.81;4993282;28;20035;-89
2023/06/12 08:06:40;;;;;;;7.10;5.57;;;;;;;23.57;44.64;101344.97;4992514;28;20018;-90
2023/06/12 08:09:09;;;;;;;11.30;5.65;;;;;;;23.65;44.62;101341.59;4993119;28;20088;-89
2023/06/12 08:11:39;;;;;;;7.85;5.97;;;;;;;23.77;43.72;101343.13;4976658;28;20057;-89
2023/06/12 08:14:05;;;;;;;12.17;5.33;;;;;;;23.89;43.93;101343.59;4993895;28;20080;-89
2023/06/12 08:16:31;;;;;;;8.55;5.85;;;;;;;23.97;44.07;101337.38;4992707;28;20117;-89
2023/06/12 08:18:57;;;;;;;9.90;5.90;;;;;;;24.06;43.78;101340.34;4993323;28;20117;-89
2023/06/12 08:21:25;;;;;;;11.68;6.32;;;;;;;24.14;43.39;101341.66;4992571;28;20177;-89
2023/06/12 08:23:51;;;;;;;9.52;6.20;;;;;;;24.24;42.99;101347.09;4993889;28;20026;-89
2023/06/12 08:26:17;;;;;;;8.35;6.18;;;;;;;24.32;43.34;101346.41;4993172;28;20455;-89
2023/06/12 08:28:43;;;;;;;10.30;6.00;;;;;;;24.44;43.08;101343.22;4992558;28;20117;-89
2023/06/12 08:31:09;;;;;;;12.77;6.25;;;;;;;24.53;42.14;101343.38;4992316;28;20123;-89
2023/06/12 08:33:34;;;;;;;9.52;5.85;;;;;;;24.64;41.29;101344.06;4992596;28;20486;-89
2023/06/12 08:36:00;;;;;;;7.93;5.50;;;;;;;24.74;40.74;101343.13;4976343;28;20088;-89
2023/06/12 08:38:30;;;;;;;6.65;5.90;;;;;;;24.81;40.78;101349.13;4996284;28;20405;-89
2023/06/12 08:40:58;;;;;;;9.90;5.57;;;;;;;24.91;41.41;101343.44;4964558;28;20423;-89
2023/06/12 08:43:29;;;;;;;16.85;6.30;;;;;;;25.01;40.86;101336.91;4996840;28;20081;-89
2023/06/12 08:45:57;;;;;;;13.05;6.13;;;;;;;25.11;40.54;101335.91;4996236;28;20038;-89
2023/06/12 08:48:26;;;;;;;7.93;5.72;;;;;;;25.21;39.69;101344.88;4995774;28;20037;-89
2023/06/12 08:50:52;;;;;;;6.80;5.45;;;;;;;25.33;39.45;101332.50;4997013;28;20023;-90
2023/06/12 08:53:18;;;;;;;8.57;5.80;;;;;;;25.42;39.45;101332.66;4980129;28;20045;-89
2023/06/12 08:55:44;;;;;;;7.97;5.60;;;;;;;25.52;38.77;101332.47;4995907;28;20065;-89
2023/06/12 08:58:21;;;;;;;9.30;5.43;;;;;;;25.67;38.82;101332.16;4995596;28;20033;-90
2023/06/12 09:00:47;;;;;;;8.57;5.43;;;;;;;25.85;38.97;101327.69;4995816;28;20022;-90
2023/06/12 09:03:13;;;;;;;7.47;5.75;;;;;;;25.97;39.14;101326.34;4995361;28;20033;-90
2023/06/12 09:05:39;;;;;;;11.52;6.00;;;;;;;26.08;38.50;101331.41;4980438;28;20045;-89
2023/06/12 09:08:05;;;;;;;7.70;5.77;;;;;;;26.21;38.54;101331.75;4995764;28;20046;-90
2023/06/12 09:10:32;;;;;;;6.57;5.63;;;;;;;26.30;38.51;101321.53;4995980;28;20120;-89
2023/06/12 09:12:59;;;;;;;9.52;5.63;;;;;;;26.37;37.42;101310.00;4996657;28;20316;-89
2023/06/12 09:15:25;;;;;;;9.27;5.70;;;;;;;26.39;37.54;101321.63;4979667;28;20031;-90
2023/06/12 09:17:53;;;;;;;7.27;5.80;;;;;;;26.48;37.51;101318.94;4997113;28;20041;-90
2023/06/12 09:20:24;;;;;;;10.80;6.10;;;;;;;26.54;36.74;101309.31;4995716;28;20026;-90
2023/06/12 09:22:51;;;;;;;9.35;5.65;;;;;;;26.56;37.41;101309.81;4995508;28;20034;-90
2023/06/12 09:25:18;;;;;;;6.70;5.43;;;;;;;26.64;37.08;101303.53;4995428;28;20034;-90
2023/06/12 09:27:47;;;;;;;12.93;5.70;;;;;;;26.75;36.47;101309.69;4995673;28;20042;-90
2023/06/12 09:30:14;;;;;;;9.77;5.60;;;;;;;26.88;36.16;101313.59;4995353;28;20033;-90
2023/06/12 09:32:44;;;;;;;7.13;5.40;;;;;;;26.98;34.89;101309.75;4996472;28;20037;-90
2023/06/12 09:35:12;;;;;;;6.30;5.22;;;;;;;27.05;35.13;101312.91;4995687;28;20034;-90
2023/06/12 09:37:41;;;;;;;7.95;5.75;;;;;;;27.14;35.48;101313.78;4979613;28;20038;-90
2023/06/12 09:40:14;;;;;;;6.43;5.83;;;;;;;27.29;35.60;101315.34;4978983;28;20035;-90
2023/06/12 09:42:43;;;;;;;8.70;5.47;;;;;;;27.45;34.60;101311.06;4995483;28;20108;-90
2023/06/12 09:45:34;;;;;;;8.60;5.80;;;;;;;27.58;35.08;101309.34;4996071;28;20058;-90
2023/06/12 09:48:06;;;;;;;7.75;5.32;;;;;;;27.66;34.19;101313.28;4978686;28;20031;-90
2023/06/12 09:50:33;;;;;;;7.35;5.40;;;;;;;27.72;34.45;101319.56;4995699;28;20030;-90
2023/06/12 09:53:02;;;;;;;6.63;5.63;;;;;;;27.72;34.17;101311.19;4994781;28;20026;-90
2023/06/12 09:55:30;;;;;;;8.15;5.50;;;;;;;27.80;33.94;101314.03;4979395;28;20529;-91
2023/06/12 09:57:58;;;;;;;10.32;5.65;;;;;;;27.94;33.87;101318.66;4995044;28;20034;-91
2023/06/12 10:00:24;;;;;;;6.72;5.25;;;;;;;28.08;34.21;101308.25;4995651;28;20030;-90
2023/06/12 10:03:26;;;;;;;7.15;5.75;;;;;;;28.20;33.66;101327.16;4994749;28;20089;-90
2023/06/12 10:06:11;;;;;;;;;;;;;;;;;;;;;
2023/06/12 10:08:43;;;;;;;7.55;5.45;;;;;;;28.41;33.08;101315.38;4996526;28;20044;-90
2023/06/12 10:11:14;;;;;;;6.57;5.70;;;;;;;28.63;32.44;101311.66;4994524;28;20185;-90
2023/06/12 10:13:40;;;;;;;12.02;6.70;;;;;;;28.77;32.25;101314.28;4962908;28;20034;-90
2023/06/12 10:16:06;;;;;;;6.88;5.85;;;;;;;29.01;31.76;101305.41;4978189;28;20061;-90
2023/06/12 10:18:33;;;;;;;7.93;5.33;;;;;;;29.25;31.72;101306.88;4994152;28;20027;-90
2023/06/12 10:21:03;;;;;;;8.48;5.53;;;;;;;29.40;31.77;101300.78;4978286;28;20039;-90
2023/06/12 10:23:30;;;;;;;11.45;5.55;;;;;;;29.66;31.01;101297.91;4995612;28;20081;-91
2023/06/12 10:25:58;;;;;;;7.65;5.70;;;;;;;29.79;30.88;101298.00;4995488;28;20041;-91
2023/06/12 10:28:24;;;;;;;7.72;6.07;;;;;;;29.79;30.45;101296.00;4994396;28;20030;-91
2023/06/12 10:31:12;;;;;;;6.57;5.60;;;;;;;30.09;30.18;101296.06;4995095;28;20554;-85
2023/06/12 10:33:54;;;;;;;7.95;5.97;;;;;;;30.33;29.40;101295.41;4995308;28;20018;-86
2023/06/12 10:36:21;;;;;;;12.02;5.70;;;;;;;30.58;30.02;101299.22;4980040;28;20077;-86
2023/06/12 10:38:56;;;;;;;5.80;5.20;;;;;;;30.74;29.07;101291.03;4993812;28;20113;-86
2023/06/12 10:41:33;;;;;;;11.07;5.37;;;;;;;30.99;29.17;101274.34;4993681;28;20030;-85
2023/06/12 10:43:59;;;;;;;6.75;5.40;;;;;;;31.23;28.33;101286.81;4993448;28;20034;-85
2023/06/12 10:46:42;;;;;;;8.15;5.28;;;;;;;31.51;28.83;101281.38;4978135;28;20085;-85
2023/06/12 10:49:13;;;;;;;8.80;5.77;;;;;;;31.69;28.10;101281.19;4993947;28;20387;-85
2023/06/12 10:51:46;;;;;;;10.05;6.45;;;;;;;31.88;28.66;101275.00;4978084;28;20030;-85
2023/06/12 10:54:15;;;;;;;10.70;5.65;;;;;;;32.04;27.38;101280.69;4994150;28;20049;-85
2023/06/12 10:56:58;;;;;;;7.80;5.55;;;;;;;32.34;27.53;101272.84;4977166;28;20072;-85
2023/06/12 10:59:33;;;;;;;8.00;5.50;;;;;;;32.48;27.03;101276.09;4993870;28;20038;-85
2023/06/12 11:01:59;;;;;;;9.17;5.53;;;;;;;32.79;26.41;101271.81;4993100;28;20030;-85
2023/06/12 11:04:25;;;;;;;9.18;5.65;;;;;;;32.88;26.09;101264.03;4993304;28;20034;-85
2023/06/12 11:06:51;;;;;;;7.30;6.10;;;;;;;33.11;26.14;101259.81;4994560;28;20040;-85
2023/06/12 11:09:16;;;;;;;8.38;6.35;;;;;;;33.27;25.38;101266.31;4994155;28;20109;-86
2023/06/12 11:11:47;;;;;;;7.03;6.17;;;;;;;33.52;25.99;101263.34;4976822;28;20490;-85
2023/06/12 11:14:13;;;;;;;7.95;5.97;;;;;;;33.67;25.08;101259.69;4992828;28;20049;-85
2023/06/12 11:16:44;;;;;;;7.17;6.30;;;;;;;33.91;24.73;101257.88;4993290;28;20479;-86
2023/06/12 11:19:10;;;;;;;8.40;6.05;;;;;;;34.76;24.38;101257.31;4994369;28;20035;-86
2023/06/12 11:21:37;;;;;;;7.25;5.65;;;;;;;36.54;22.57;101259.88;4976515;28;20145;-85
2023/06/12 11:24:17;;;;;;;7.72;5.90;;;;;;;39.27;19.59;101261.06;4992950;28;20037;-86
2023/06/12 11:26:43;;;;;;;10.80;6.03;;;;;;;41.73;17.60;101250.28;4994328;28;20023;-86